createdAt,value
2019-03-21T00:00:21.360Z,9.42
2019-03-21T00:03:54.051Z,9.38
2019-03-21T00:07:24.221Z,9.38
2019-03-21T00:12:01.291Z,9.35
2019-03-21T00:15:35.292Z,9.32
2019-03-21T00:19:05.282Z,9.25
2019-03-21T00:22:35.422Z,9.21
2019-03-21T00:26:05.483Z,9.14
2019-03-21T00:29:35.624Z,9.15
2019-03-21T00:33:05.738Z,9.15
2019-03-21T00:36:35.814Z,9.12
2019-03-21T00:40:09.044Z,9.07
2019-03-21T00:43:39.185Z,9.02
2019-03-21T00:47:09.266Z,8.98
2019-03-21T00:50:39.816Z,8.95
2019-03-21T00:54:09.986Z,8.81
2019-03-21T00:57:40.067Z,8.74
2019-03-21T01:01:10.237Z,8.67
2019-03-21T01:04:40.237Z,8.53
2019-03-21T01:08:10.388Z,8.5
2019-03-21T01:11:41.779Z,8.43
2019-03-21T01:15:11.919Z,8.4
2019-03-21T01:18:42.080Z,8.3
2019-03-21T01:22:12.209Z,8.2
2019-03-21T01:25:45.324Z,8.15
2019-03-21T01:29:15.400Z,8.13
2019-03-21T01:32:45.608Z,8.05
2019-03-21T01:36:16.949Z,7.98
2019-03-21T01:39:47.074Z,8.01
2019-03-21T01:43:17.530Z,7.99
2019-03-21T01:46:47.822Z,7.94
2019-03-21T01:50:17.977Z,7.87
2019-03-21T01:53:48.239Z,7.87
2019-03-21T01:57:18.593Z,7.89
2019-03-21T02:00:19.618Z,7.73
2019-03-21T02:03:49.743Z,7.72
2019-03-21T02:07:19.927Z,7.7
2019-03-21T02:10:50.141Z,7.74
2019-03-21T02:14:21.038Z,7.63
2019-03-21T02:17:51.130Z,7.63
2019-03-21T02:21:21.245Z,7.68
2019-03-21T02:24:51.350Z,7.65
2019-03-21T02:28:21.513Z,7.58
2019-03-21T02:31:51.679Z,7.6
2019-03-21T02:35:21.833Z,7.55
2019-03-21T02:38:51.978Z,7.53
2019-03-21T02:42:21.973Z,7.49
2019-03-21T02:45:52.037Z,7.55
2019-03-21T02:49:22.201Z,7.48
2019-03-21T02:52:52.246Z,7.5
2019-03-21T02:56:22.611Z,7.42
2019-03-21T02:59:52.654Z,7.43
2019-03-21T03:03:22.929Z,7.45
2019-03-21T03:06:53.022Z,7.41
2019-03-21T03:10:27.431Z,7.36
2019-03-21T03:13:57.522Z,7.43
2019-03-21T03:17:28.537Z,7.38
2019-03-21T03:20:58.610Z,7.37
2019-03-21T03:24:30.245Z,7.36
2019-03-21T03:28:04.550Z,7.35
2019-03-21T03:31:34.761Z,7.3
2019-03-21T03:35:06.844Z,7.26
2019-03-21T03:38:37.006Z,7.17
2019-03-21T03:42:07.295Z,7.26
2019-03-21T03:45:38.572Z,7.08
2019-03-21T03:49:08.977Z,7.06
2019-03-21T03:52:39.091Z,7.1
2019-03-21T03:56:09.227Z,7.03
2019-03-21T03:59:39.280Z,7.12
2019-03-21T04:00:17.092Z,7.1
2019-03-21T04:03:47.314Z,7.09
2019-03-21T04:07:17.608Z,7.03
2019-03-21T04:10:47.924Z,6.92
2019-03-21T04:14:18.066Z,6.94
2019-03-21T04:17:48.230Z,6.86
2019-03-21T04:21:18.357Z,6.86
2019-03-21T04:24:48.459Z,6.93
2019-03-21T04:28:18.587Z,6.86
2019-03-21T04:31:48.618Z,6.88
2019-03-21T04:35:18.813Z,6.88
2019-03-21T04:38:48.798Z,6.98
2019-03-21T04:42:18.902Z,7.09
2019-03-21T04:45:48.966Z,7.1
2019-03-21T04:49:19.060Z,7.08
2019-03-21T04:52:49.145Z,7.02
2019-03-21T04:56:19.359Z,7.14
2019-03-21T04:59:49.532Z,7.27
2019-03-21T05:03:19.738Z,7.31
2019-03-21T05:06:49.820Z,7.37
2019-03-21T05:10:20.030Z,7.32
2019-03-21T05:13:50.126Z,7.43
2019-03-21T05:17:20.278Z,7.43
2019-03-21T05:20:51.270Z,7.47
2019-03-21T05:24:21.367Z,7.58
2019-03-21T05:27:51.382Z,7.68
2019-03-21T05:31:24.970Z,7.79
2019-03-21T05:34:54.970Z,7.84
2019-03-21T05:38:25.785Z,8.05
2019-03-21T05:41:55.839Z,8
2019-03-21T05:45:25.942Z,8.11
2019-03-21T05:48:55.946Z,8.13
2019-03-21T05:52:26.062Z,8.24
2019-03-21T05:55:56.074Z,8.42
2019-03-21T05:59:26.287Z,8.74
2019-03-21T06:00:19.896Z,8.82
2019-03-21T06:03:50.300Z,8.85
2019-03-21T06:07:27.734Z,8.74
2019-03-21T06:10:57.787Z,8.77
2019-03-21T06:14:28.244Z,8.66
2019-03-21T06:18:11.315Z,8.78
2019-03-21T06:22:04.635Z,8.76
2019-03-21T06:25:44.931Z,8.87
2019-03-21T06:29:15.115Z,8.53
2019-03-21T06:32:45.220Z,8.68
2019-03-21T06:36:15.373Z,8.76
2019-03-21T06:39:45.427Z,8.75
2019-03-21T06:43:15.600Z,9.09
2019-03-21T06:46:49.766Z,8.91
2019-03-21T06:50:20.088Z,9.2
2019-03-21T06:53:50.073Z,9.58
2019-03-21T06:57:20.167Z,9.6
2019-03-21T07:00:50.171Z,9.78
2019-03-21T07:04:20.264Z,10.03
2019-03-21T07:07:50.427Z,10.24
2019-03-21T07:11:20.521Z,10.39
2019-03-21T07:14:50.635Z,10.67
2019-03-21T07:18:20.800Z,10.54
2019-03-21T07:21:52.683Z,10.49
2019-03-21T07:25:22.717Z,10.82
2019-03-21T07:28:52.847Z,10.94
2019-03-21T07:32:33.062Z,10.83
2019-03-21T07:36:04.059Z,10.89
2019-03-21T07:39:34.222Z,11.1
2019-03-21T07:43:04.303Z,11.15
2019-03-21T07:46:34.431Z,11.41
2019-03-21T07:50:05.391Z,11.44
2019-03-21T07:53:35.459Z,11.37
2019-03-21T07:57:05.607Z,11.1
2019-03-21T08:00:16.217Z,11.26
2019-03-21T08:03:46.210Z,11.52
2019-03-21T08:07:16.329Z,11.69
2019-03-21T08:10:46.449Z,11.59
2019-03-21T08:14:16.532Z,11.62
2019-03-21T08:17:46.595Z,11.74
2019-03-21T08:21:16.640Z,12.04
2019-03-21T08:24:47.628Z,12.19
2019-03-21T08:28:17.888Z,12.34
2019-03-21T08:31:47.972Z,12.39
2019-03-21T08:35:18.117Z,12.14
2019-03-21T08:38:48.341Z,12.06
2019-03-21T08:42:18.535Z,12.28
2019-03-21T08:45:48.739Z,12.52
2019-03-21T08:49:18.972Z,12.8
2019-03-21T08:52:49.078Z,12.92
2019-03-21T08:56:19.203Z,12.68
2019-03-21T08:59:49.515Z,12.95
2019-03-21T09:03:19.608Z,12.8
2019-03-21T09:06:49.634Z,12.95
2019-03-21T09:10:19.807Z,12.58
2019-03-21T09:13:49.981Z,12.42
2019-03-21T09:17:20.156Z,12.42
2019-03-21T09:20:50.210Z,12.56
2019-03-21T09:24:20.548Z,12.97
2019-03-21T09:28:01.935Z,13.26
2019-03-21T09:31:32.861Z,13.55
2019-03-21T09:35:03.955Z,13.76
2019-03-21T09:38:34.019Z,14.16
2019-03-21T09:42:04.153Z,14.06
2019-03-21T09:45:34.261Z,14.24
2019-03-21T09:49:04.341Z,14.14
2019-03-21T09:52:34.450Z,14.16
2019-03-21T09:56:04.490Z,14.6
2019-03-21T09:59:34.683Z,15.08
2019-03-21T10:00:28.792Z,15.01
2019-03-21T10:03:58.879Z,15.22
2019-03-21T10:07:29.000Z,15.56
2019-03-21T10:10:59.135Z,15.89
2019-03-21T10:14:29.308Z,16.18
2019-03-21T10:19:50.839Z,16.32
2019-03-21T10:23:20.864Z,16.33
2019-03-21T10:26:50.928Z,16.05
2019-03-21T10:30:32.913Z,15.87
2019-03-21T10:34:03.146Z,16.45
2019-03-21T10:37:33.190Z,16.81
2019-03-21T10:41:03.457Z,16.73
2019-03-21T10:44:33.639Z,17.25
2019-03-21T10:48:04.289Z,17.68
2019-03-21T10:51:34.480Z,17.87
2019-03-21T10:55:05.093Z,18.1
2019-03-21T10:58:35.137Z,18.23
2019-03-21T11:02:07.539Z,18.04
2019-03-21T11:05:37.974Z,18.3
2019-03-21T11:09:08.208Z,18.48
2019-03-21T11:12:38.282Z,18.38
2019-03-21T11:16:08.387Z,18.57
2019-03-21T11:19:38.497Z,18.77
2019-03-21T11:23:08.795Z,19.12
2019-03-21T11:26:38.799Z,19.16
2019-03-21T11:30:16.111Z,19.21
2019-03-21T11:33:47.568Z,19.33
2019-03-21T11:37:17.743Z,18.06
2019-03-21T11:40:48.538Z,16.93
2019-03-21T11:44:18.877Z,16.34
2019-03-21T11:47:49.134Z,16.79
2019-03-21T11:51:19.242Z,17.35
2019-03-21T11:54:49.226Z,16.88
2019-03-21T11:58:19.470Z,16.44
2019-03-21T12:00:16.552Z,16.23
2019-03-21T12:03:46.788Z,15.79
2019-03-21T12:07:16.892Z,15.91
2019-03-21T12:10:47.027Z,16.77
2019-03-21T12:14:17.141Z,17.68
2019-03-21T12:17:47.305Z,18.35
2019-03-21T12:21:17.399Z,19.1
2019-03-21T12:24:47.553Z,19.39
2019-03-21T12:28:17.525Z,19.26
2019-03-21T12:31:47.572Z,19.07
2019-03-21T12:35:18.596Z,19.78
2019-03-21T12:38:48.630Z,20.09
2019-03-21T12:42:18.911Z,20.44
2019-03-21T12:45:49.129Z,21.06
2019-03-21T12:49:19.243Z,20.64
2019-03-21T12:52:49.318Z,20.32
2019-03-21T12:56:19.323Z,20.44
2019-03-21T12:59:49.446Z,20.6
2019-03-21T13:03:19.642Z,20.11
2019-03-21T13:06:49.756Z,19.99
2019-03-21T13:10:19.850Z,20.19
2019-03-21T13:13:49.974Z,20.51
2019-03-21T13:17:20.078Z,21.09
2019-03-21T13:20:50.252Z,21.36
2019-03-21T13:24:20.317Z,21.29
2019-03-21T13:27:50.494Z,21.01
2019-03-21T13:31:20.675Z,20.63
2019-03-21T13:34:50.751Z,20.65
2019-03-21T13:38:21.011Z,21.06
2019-03-21T13:41:51.070Z,21.23
2019-03-21T13:45:21.243Z,21.49
2019-03-21T13:48:51.427Z,21.45
2019-03-21T13:52:21.593Z,20.82
2019-03-21T13:55:51.766Z,21.01
2019-03-21T13:59:21.891Z,21.53
2019-03-21T14:00:17.999Z,21.66
2019-03-21T14:03:48.153Z,21.53
2019-03-21T14:07:18.348Z,20.84
2019-03-21T14:10:48.542Z,19.53
2019-03-21T14:14:18.626Z,18.35
2019-03-21T14:17:48.745Z,17.54
2019-03-21T14:21:18.926Z,16.95
2019-03-21T14:24:49.202Z,16.29
2019-03-21T14:28:19.274Z,16.21
2019-03-21T14:31:49.338Z,16.27
2019-03-21T14:35:19.542Z,16.14
2019-03-21T14:38:50.756Z,16.19
2019-03-21T14:42:20.861Z,16.38
2019-03-21T14:45:51.005Z,16.37
2019-03-21T14:49:21.111Z,16.38
2019-03-21T14:52:51.243Z,16.36
2019-03-21T14:56:21.277Z,16.84
2019-03-21T14:59:51.312Z,16.85
2019-03-21T15:03:21.426Z,16.96
2019-03-21T15:06:51.550Z,16.87
2019-03-21T15:10:21.734Z,16.91
2019-03-21T15:13:51.948Z,17.04
2019-03-21T15:17:22.132Z,17.14
2019-03-21T15:20:52.198Z,17.39
2019-03-21T15:24:22.374Z,17.59
2019-03-21T15:27:52.438Z,18.2
2019-03-21T15:31:22.510Z,17.72
2019-03-21T15:34:52.734Z,17.59
2019-03-21T15:38:22.760Z,17.8
2019-03-21T15:41:53.952Z,17.23
2019-03-21T15:45:24.251Z,16.31
2019-03-21T15:48:54.434Z,15.74
2019-03-21T15:52:24.465Z,15.61
2019-03-21T15:55:54.579Z,15.08
2019-03-21T15:59:24.734Z,13.94
2019-03-21T16:00:41.284Z,13.76
2019-03-21T16:04:11.455Z,12.8
2019-03-21T16:07:41.630Z,12.39
2019-03-21T16:11:11.754Z,11.85
2019-03-21T16:14:41.837Z,11.46
2019-03-21T16:18:11.982Z,11.41
2019-03-21T16:21:42.036Z,11.47
2019-03-21T16:25:12.170Z,11.53
2019-03-21T16:28:42.337Z,11.48
2019-03-21T16:32:12.538Z,11.48
2019-03-21T16:35:42.556Z,11.41
2019-03-21T16:39:12.676Z,11.38
2019-03-21T16:42:44.382Z,11.47
2019-03-21T16:46:14.571Z,11.5
2019-03-21T16:49:44.608Z,11.48
2019-03-21T16:53:14.665Z,11.48
2019-03-21T16:56:44.770Z,11.4
2019-03-21T17:00:17.618Z,11.35
2019-03-21T17:03:48.158Z,11.29
2019-03-21T17:07:18.277Z,11.21
2019-03-21T17:10:48.348Z,11.26
2019-03-21T17:14:18.520Z,11.19
2019-03-21T17:17:48.645Z,11.11
2019-03-21T17:21:18.819Z,11.2
2019-03-21T17:24:48.908Z,11.19
2019-03-21T17:28:18.967Z,11.26
2019-03-21T17:31:49.164Z,11.28
2019-03-21T17:35:19.431Z,11.26
2019-03-21T17:38:49.589Z,11.23
2019-03-21T17:42:21.002Z,11.27
2019-03-21T17:45:52.292Z,11.33
2019-03-21T17:49:22.407Z,11.28
2019-03-21T17:52:52.528Z,11.34
2019-03-21T17:56:22.762Z,11.32
2019-03-21T17:59:52.807Z,11.37
2019-03-21T18:00:17.297Z,11.37
2019-03-21T18:03:47.709Z,11.41
2019-03-21T18:07:17.800Z,11.3
2019-03-21T18:10:48.047Z,11.16
2019-03-21T18:14:18.055Z,11.06
2019-03-21T18:17:48.102Z,11.07
2019-03-21T18:21:18.274Z,11.07
2019-03-21T18:24:53.802Z,10.87
2019-03-21T18:28:24.467Z,10.74
2019-03-21T18:31:54.493Z,10.68
2019-03-21T18:35:24.630Z,10.66
2019-03-21T18:38:59.447Z,10.61
2019-03-21T18:42:29.930Z,10.68
2019-03-21T18:46:00.266Z,10.7
2019-03-21T18:49:30.335Z,10.65
2019-03-21T18:53:00.372Z,10.56
2019-03-21T18:56:30.377Z,10.49
2019-03-21T19:00:51.990Z,10.5
2019-03-21T19:04:22.043Z,10.47
2019-03-21T19:07:52.146Z,10.45
2019-03-21T19:11:22.170Z,10.43
2019-03-21T19:14:52.243Z,10.41
2019-03-21T19:18:22.286Z,10.31
2019-03-21T19:21:52.439Z,10.35
2019-03-21T19:25:22.563Z,10.36
2019-03-21T19:28:52.656Z,10.25
2019-03-21T19:32:22.889Z,10.19
2019-03-21T19:35:53.152Z,10.28
2019-03-21T19:39:23.265Z,10.32
2019-03-21T19:42:53.360Z,10.42
2019-03-21T19:46:23.502Z,10.48
2019-03-21T19:49:53.604Z,10.44
2019-03-21T19:53:23.669Z,10.44
2019-03-21T19:56:53.773Z,10.42
2019-03-21T20:00:17.227Z,10.5
2019-03-21T20:03:47.489Z,10.55
2019-03-21T20:07:17.654Z,10.57
2019-03-21T20:10:47.795Z,10.57
2019-03-21T20:14:17.878Z,10.55
2019-03-21T20:17:48.001Z,10.58
2019-03-21T20:21:18.105Z,10.59
2019-03-21T20:24:48.328Z,10.59
2019-03-21T20:28:18.462Z,10.63
2019-03-21T20:31:48.564Z,10.57
2019-03-21T20:35:18.707Z,10.58
2019-03-21T20:38:48.821Z,10.51
2019-03-21T20:42:18.786Z,10.52
2019-03-21T20:45:48.987Z,10.47
2019-03-21T20:49:19.942Z,10.43
2019-03-21T20:52:50.138Z,10.36
2019-03-21T20:56:20.317Z,10.34
2019-03-21T20:59:50.461Z,10.36
2019-03-21T21:03:20.703Z,10.3
2019-03-21T21:06:50.860Z,10.29
2019-03-21T21:10:21.191Z,10.17
2019-03-21T21:13:51.395Z,10.23
2019-03-21T21:17:21.558Z,9.98
2019-03-21T21:20:51.770Z,9.77
2019-03-21T21:24:21.844Z,9.8
2019-03-21T21:27:51.866Z,9.69
2019-03-21T21:31:21.948Z,9.39
2019-03-21T21:34:54.450Z,9.39
2019-03-21T21:38:25.035Z,9.33
2019-03-21T21:41:55.239Z,9.13
2019-03-21T21:45:25.412Z,9.23
2019-03-21T21:48:55.487Z,9.34
2019-03-21T21:52:26.579Z,9.5
2019-03-21T21:55:56.592Z,9.41
2019-03-21T21:59:26.642Z,9.51
2019-03-21T22:00:16.848Z,9.52
2019-03-21T22:03:46.999Z,9.4
2019-03-21T22:07:17.132Z,9.2
2019-03-21T22:10:47.225Z,9.26
2019-03-21T22:14:17.368Z,9.12
2019-03-21T22:17:47.472Z,8.99
2019-03-21T22:21:17.609Z,9.17
2019-03-21T22:24:47.778Z,9.17
2019-03-21T22:28:17.811Z,9.33
2019-03-21T22:31:47.974Z,9.48
2019-03-21T22:35:18.058Z,9.39
2019-03-21T22:38:48.141Z,9.05
2019-03-21T22:42:18.170Z,8.93
2019-03-21T22:45:48.425Z,8.73
2019-03-21T22:49:18.510Z,8.45
2019-03-21T22:52:48.662Z,8.45
2019-03-21T22:56:18.786Z,8.44
2019-03-21T22:59:48.939Z,8.34
2019-03-21T23:03:19.152Z,8.28
2019-03-21T23:06:49.306Z,8.17
2019-03-21T23:10:19.398Z,7.98
2019-03-21T23:13:49.481Z,7.92
2019-03-21T23:17:19.514Z,7.92
2019-03-21T23:20:49.592Z,7.83
2019-03-21T23:24:19.661Z,7.82
2019-03-21T23:27:49.835Z,7.8
2019-03-21T23:31:19.967Z,7.7
2019-03-21T23:34:50.135Z,7.68
2019-03-21T23:38:20.103Z,7.71
2019-03-21T23:41:50.408Z,7.69
2019-03-21T23:45:20.479Z,7.6
2019-03-21T23:48:50.593Z,7.64
2019-03-21T23:52:20.626Z,7.7
2019-03-21T23:55:51.689Z,7.73
2019-03-21T23:59:21.801Z,7.77
